Time;durP1;ratioP1;P1;durP2;ratioP2;P2;SDS_P1;SDS_P2;PMS_P1;PMS_P2;Temp;Humidity;BMP_temperature;BMP_pressure;BME280_temperature;BME280_humidity;BME280_pressure;Samples;Min_cycle;Max_cycle;Signal;HPM_P1;HPM_P2
2022/08/01 00:00:19;;;;;;;4.13;1.27;;;;;;;22.35;47.31;99873.38;10334373;28;20073;-77
2022/08/01 00:05:21;;;;;;;4.38;1.40;;;;;;;22.29;47.65;99880.19;10337582;28;20058;-77
2022/08/01 00:10:22;;;;;;;2.20;1.30;;;;;;;22.21;48.08;99869.53;10334351;28;20143;-77
2022/08/01 00:15:24;;;;;;;5.05;1.52;;;;;;;22.11;48.26;99871.53;10334596;28;20054;-77
2022/08/01 00:20:26;;;;;;;3.15;1.40;;;;;;;22.11;48.15;99866.22;10333371;28;20050;-77
2022/08/01 00:25:28;;;;;;;2.88;1.33;;;;;;;22.10;48.29;99875.22;10332070;28;20050;-76
2022/08/01 00:30:35;;;;;;;5.95;1.55;;;;;;;22.03;48.80;99868.88;10330836;28;20050;-77
2022/08/01 00:35:37;;;;;;;4.25;1.60;;;;;;;21.95;48.85;99871.50;10331712;28;20050;-77
2022/08/01 00:40:38;;;;;;;3.10;1.40;;;;;;;21.85;49.31;99871.66;10334114;28;20066;-77
2022/08/01 00:45:41;;;;;;;6.13;1.55;;;;;;;21.79;49.32;99866.16;10334558;28;20100;-77
2022/08/01 00:50:43;;;;;;;3.00;1.40;;;;;;;21.70;49.63;99878.63;10345376;28;20186;-76
2022/08/01 00:55:48;;;;;;;3.47;1.30;;;;;;;21.66;49.54;99879.13;10329082;28;20046;-77
2022/08/01 01:00:49;;;;;;;2.85;1.50;;;;;;;21.56;49.79;99875.75;10334474;28;20116;-77
2022/08/01 01:06:34;;;;;;;5.18;1.40;;;;;;;21.43;50.55;99875.41;10333063;28;20568;-76
2022/08/01 01:12:12;;;;;;;5.13;1.30;;;;;;;21.34;50.46;99876.38;10317010;28;20046;-76
2022/08/01 01:17:17;;;;;;;4.50;1.60;;;;;;;21.40;50.40;99870.41;10340877;28;20561;-76
2022/08/01 01:22:47;;;;;;;3.35;1.40;;;;;;;21.34;50.59;99871.06;10345577;28;20050;-77
2022/08/01 01:28:29;;;;;;;2.60;1.27;;;;;;;21.22;50.61;99874.97;10344101;28;20112;-76
2022/08/01 01:33:33;;;;;;;3.53;1.45;;;;;;;21.32;50.54;99875.69;10335672;28;20107;-77
2022/08/01 01:38:41;;;;;;;4.00;1.50;;;;;;;21.33;50.39;99885.38;10343297;28;20054;-76
2022/08/01 01:43:45;;;;;;;3.73;1.40;;;;;;;21.26;50.53;99884.28;10347257;28;20416;-76
2022/08/01 01:48:48;;;;;;;4.63;1.40;;;;;;;21.29;50.29;99881.31;10345155;28;20566;-76
2022/08/01 01:53:53;;;;;;;4.35;1.33;;;;;;;21.41;50.43;99883.56;10360991;28;20062;-76
2022/08/01 01:58:59;;;;;;;2.95;1.48;;;;;;;21.51;50.15;99881.59;10344703;28;20058;-76
2022/08/01 02:04:02;;;;;;;3.13;1.67;;;;;;;21.58;50.32;99881.75;10346285;28;20081;-76
2022/08/01 02:09:05;;;;;;;6.70;1.42;;;;;;;21.63;50.05;99874.13;10352244;28;20104;-76
2022/08/01 02:14:09;;;;;;;3.47;1.48;;;;;;;21.64;50.17;99862.50;10359294;28;20088;-76
2022/08/01 02:19:11;;;;;;;4.53;1.38;;;;;;;21.56;50.26;99876.59;10349454;28;20377;-76
2022/08/01 02:24:51;;;;;;;4.43;1.48;;;;;;;21.50;50.52;99887.91;10350105;28;20147;-77
2022/08/01 02:29:59;;;;;;;5.10;1.77;;;;;;;21.53;50.58;99879.59;10348487;28;20054;-76
2022/08/01 02:35:03;;;;;;;5.80;1.40;;;;;;;21.60;50.46;99895.72;10342177;28;20051;-76
2022/08/01 02:40:07;;;;;;;4.22;1.33;;;;;;;21.56;50.32;99887.25;10341385;28;20058;-76
2022/08/01 02:45:17;;;;;;;2.38;1.40;;;;;;;21.64;50.29;99889.13;10342543;28;20076;-76
2022/08/01 02:50:20;;;;;;;3.80;1.70;;;;;;;21.69;50.18;99882.31;10344458;28;20108;-77
2022/08/01 02:55:23;;;;;;;4.15;1.40;;;;;;;21.63;50.25;99876.78;10339171;28;20046;-77
2022/08/01 03:00:26;;;;;;;3.22;1.48;;;;;;;21.66;50.38;99877.28;10343168;28;20099;-77
2022/08/01 03:05:29;;;;;;;2.80;1.40;;;;;;;21.70;50.21;99867.16;10340202;28;20836;-77
2022/08/01 03:10:32;;;;;;;2.55;1.40;;;;;;;21.69;50.09;99869.00;10338284;28;20046;-77
2022/08/01 03:15:38;;;;;;;2.55;1.48;;;;;;;21.74;49.88;99868.50;10352416;28;20444;-76
2022/08/01 03:20:42;;;;;;;5.60;1.73;;;;;;;21.75;50.22;99878.13;10335500;28;20050;-76
2022/08/01 03:25:45;;;;;;;3.35;1.50;;;;;;;21.77;49.99;99874.31;10337744;28;20050;-76
2022/08/01 03:30:48;;;;;;;3.30;1.40;;;;;;;21.75;49.93;99886.13;10350611;28;20058;-77
2022/08/01 03:35:53;;;;;;;2.75;1.52;;;;;;;21.77;49.85;99889.47;10333263;28;20050;-76
2022/08/01 03:41:02;;;;;;;4.05;1.50;;;;;;;21.81;50.08;99886.31;10350260;28;20059;-76
2022/08/01 03:46:07;;;;;;;4.78;1.85;;;;;;;21.87;49.78;99885.66;10332185;28;20499;-76
2022/08/01 03:57:38;;;;;;;;;;;;;;;21.32;51.27;99887.19;10336235;28;20042;-77
2022/08/01 04:02:41;;;;;;;4.07;1.80;;;;;;;21.77;50.35;99884.13;10350791;28;20350;-76
2022/08/01 04:07:55;;;;;;;4.47;1.77;;;;;;;21.85;50.33;99887.66;10337005;28;20060;-76
2022/08/01 04:12:57;;;;;;;4.70;1.80;;;;;;;21.83;50.03;99878.16;10347528;28;20058;-77
2022/08/01 04:17:58;;;;;;;5.18;1.75;;;;;;;21.97;50.11;99890.81;10333811;28;20064;-77
2022/08/01 04:23:00;;;;;;;3.70;1.77;;;;;;;22.03;50.00;99884.84;10336104;28;20054;-77
2022/08/01 04:28:07;;;;;;;7.13;2.00;;;;;;;22.01;50.50;99899.28;10333335;28;20049;-77
2022/08/01 04:33:10;;;;;;;3.15;1.90;;;;;;;21.73;50.88;99904.09;10331843;28;20400;-76
2022/08/01 04:38:17;;;;;;;3.65;2.35;;;;;;;21.44;52.65;99919.63;10335194;28;20108;-77
2022/08/01 04:43:19;;;;;;;8.88;2.30;;;;;;;21.43;53.15;99916.16;10332629;28;20160;-77
2022/08/01 04:48:24;;;;;;;5.78;2.22;;;;;;;21.33;53.39;99933.25;10334580;28;20058;-77
2022/08/01 04:53:26;;;;;;;10.10;2.67;;;;;;;21.45;53.03;99934.63;10331150;28;20503;-76
2022/08/01 04:58:28;;;;;;;5.55;2.50;;;;;;;;;;10332840;28;21008;-77
2022/08/01 05:03:29;;;;;;;5.97;3.05;;;;;;;21.51;53.25;99926.00;10347331;28;20559;-76
2022/08/01 05:08:35;;;;;;;3.85;2.50;;;;;;;21.63;52.75;99938.84;10334048;28;20152;-76
2022/08/01 05:13:37;;;;;;;5.88;2.70;;;;;;;21.70;52.90;99942.50;10331321;28;20054;-76
2022/08/01 05:18:39;;;;;;;5.18;2.40;;;;;;;21.77;52.41;99938.22;10332109;28;20148;-77
2022/08/01 05:23:42;;;;;;;5.90;2.95;;;;;;;21.87;52.38;99935.41;10330382;28;20456;-77
2022/08/01 05:28:44;;;;;;;5.55;3.00;;;;;;;21.82;52.08;99937.75;10328581;28;20460;-77
2022/08/01 05:33:45;;;;;;;5.60;2.75;;;;;;;21.88;52.26;99940.56;10331637;28;20062;-77
2022/08/01 05:38:47;;;;;;;4.35;2.60;;;;;;;21.96;52.03;99947.75;10330902;28;20108;-76
2022/08/01 05:43:49;;;;;;;5.07;2.80;;;;;;;22.07;52.21;99951.97;10332137;28;20058;-76
2022/08/01 05:48:51;;;;;;;4.57;2.70;;;;;;;22.06;52.07;99952.94;10330125;28;20053;-77
2022/08/01 05:53:54;;;;;;;5.80;3.08;;;;;;;22.13;51.61;99960.09;10330577;28;20065;-76
2022/08/01 05:58:56;;;;;;;4.93;2.83;;;;;;;22.14;51.72;99961.78;10325390;28;20100;-76
2022/08/01 06:03:58;;;;;;;5.18;3.25;;;;;;;22.14;51.48;99960.94;10330902;28;20066;-77
2022/08/01 06:09:00;;;;;;;6.45;3.28;;;;;;;22.12;51.41;99960.28;10352508;28;20132;-77
2022/08/01 06:14:02;;;;;;;5.68;2.60;;;;;;;22.26;51.34;99973.78;10336407;28;20053;-77
2022/08/01 06:19:04;;;;;;;6.55;3.03;;;;;;;22.42;50.58;99971.13;10350848;28;20061;-77
2022/08/01 06:24:06;;;;;;;5.45;2.80;;;;;;;22.47;51.18;99973.31;10334051;28;20151;-76
2022/08/01 06:29:08;;;;;;;5.13;3.35;;;;;;;22.64;50.34;99973.13;10337606;28;20124;-77
2022/08/01 06:34:10;;;;;;;19.90;3.40;;;;;;;22.81;50.18;99975.81;10336437;28;20050;-77
2022/08/01 06:39:12;;;;;;;7.10;3.08;;;;;;;23.05;49.46;99973.94;10337176;28;20047;-77
2022/08/01 06:44:14;;;;;;;8.25;3.22;;;;;;;23.83;47.96;99963.31;10336582;28;20710;-77
2022/08/01 06:49:15;;;;;;;7.38;3.10;;;;;;;24.21;46.95;99970.44;10337824;28;20058;-77
2022/08/01 06:54:17;;;;;;;6.72;3.22;;;;;;;24.19;46.88;99967.94;10334938;28;20054;-77
2022/08/01 06:59:19;;;;;;;7.57;3.67;;;;;;;24.15;46.91;99963.13;10331752;28;20097;-77
2022/08/01 07:04:21;;;;;;;8.57;4.13;;;;;;;24.46;46.28;99963.06;10334674;28;20057;-76
2022/08/01 07:09:23;;;;;;;6.10;4.20;;;;;;;24.76;45.40;99964.81;10340395;28;20054;-77
2022/08/01 07:14:25;;;;;;;6.93;4.75;;;;;;;24.76;45.09;99962.16;10335852;28;20108;-77
2022/08/01 07:19:27;;;;;;;8.57;4.22;;;;;;;24.61;45.01;99958.59;10333145;28;20128;-77
2022/08/01 07:24:29;;;;;;;5.65;4.28;;;;;;;24.76;45.01;99952.28;10334893;28;20479;-77
2022/08/01 07:29:31;;;;;;;6.10;4.60;;;;;;;24.73;45.07;99952.66;10334040;28;20105;-77
2022/08/01 07:34:33;;;;;;;6.53;4.78;;;;;;;24.67;45.24;99963.22;10352835;28;20050;-77
2022/08/01 07:39:34;;;;;;;6.47;4.55;;;;;;;25.66;43.78;99961.84;10332721;28;20049;-77
2022/08/01 07:44:37;;;;;;;7.25;3.88;;;;;;;27.84;39.68;99956.19;10337512;28;20648;-77
2022/08/01 07:49:39;;;;;;;6.90;3.40;;;;;;;27.93;38.56;99949.59;10331380;28;20042;-77
2022/08/01 07:54:41;;;;;;;7.65;3.60;;;;;;;27.03;39.46;99950.78;10335529;28;20061;-77
2022/08/01 07:59:43;;;;;;;5.22;3.70;;;;;;;26.33;40.63;99958.88;10329423;28;20443;-82
2022/08/01 08:04:45;;;;;;;4.95;3.60;;;;;;;27.41;38.71;99952.06;10333348;28;20066;-82
2022/08/01 08:09:49;;;;;;;6.85;3.83;;;;;;;29.64;34.79;99950.38;10332096;28;20047;-82
2022/08/01 08:14:52;;;;;;;6.07;3.50;;;;;;;30.01;34.15;99944.19;10333154;28;20122;-82
2022/08/01 08:19:53;;;;;;;5.45;3.05;;;;;;;28.99;35.53;99954.09;10332467;28;20499;-81
2022/08/01 08:24:55;;;;;;;3.97;2.65;;;;;;;28.05;36.58;99953.38;10335766;28;20057;-83
2022/08/01 08:30:02;;;;;;;5.82;2.92;;;;;;;27.39;38.04;99957.66;10332781;28;20159;-82
2022/08/01 08:35:05;;;;;;;7.35;3.20;;;;;;;27.21;38.73;99962.72;10333680;28;20054;-82
2022/08/01 08:40:08;;;;;;;3.78;2.65;;;;;;;28.25;37.11;99951.53;10329603;28;20944;-82
2022/08/01 08:45:11;;;;;;;6.35;3.05;;;;;;;29.78;34.25;99946.59;10335585;28;20423;-80
2022/08/01 08:50:16;;;;;;;3.42;2.40;;;;;;;29.85;33.54;99941.97;10342975;28;20165;-80
2022/08/01 08:55:28;;;;;;;3.80;2.40;;;;;;;30.82;31.12;99930.72;10333992;28;20050;-79
2022/08/01 09:00:30;;;;;;;4.47;2.33;;;;;;;31.23;31.18;99926.34;10332381;28;20046;-80
2022/08/01 09:05:35;;;;;;;3.85;2.50;;;;;;;31.57;30.38;99919.53;10331372;28;20054;-80
2022/08/01 09:10:40;;;;;;;4.22;2.10;;;;;;;31.69;29.47;99914.16;10330670;28;20696;-79
2022/08/01 09:15:42;;;;;;;4.05;2.38;;;;;;;31.62;30.02;99926.97;10346469;28;20049;-79
2022/08/01 09:20:46;;;;;;;3.95;2.35;;;;;;;30.25;31.38;99929.09;10345663;28;20085;-80
2022/08/01 09:25:54;;;;;;;3.80;2.33;;;;;;;29.17;32.84;99938.09;10330902;28;20069;-79
2022/08/01 09:31:16;;;;;;;3.55;2.10;;;;;;;28.97;32.46;99937.31;10330052;28;20046;-79
2022/08/01 09:36:24;;;;;;;4.15;2.13;;;;;;;29.33;32.73;99932.22;10332381;28;20055;-80
2022/08/01 09:41:32;;;;;;;5.05;2.20;;;;;;;28.98;33.53;99923.63;10350069;28;20050;-79
2022/08/01 09:46:50;;;;;;;3.08;2.00;;;;;;;28.86;33.76;99921.78;10354393;28;20396;-79
2022/08/01 09:51:53;;;;;;;4.05;2.25;;;;;;;29.11;33.59;99927.31;10353705;28;20550;-80
2022/08/01 09:57:16;;;;;;;5.70;2.38;;;;;;;29.72;32.52;99932.06;10334083;28;20057;-80
2022/08/01 10:02:49;;;;;;;5.82;2.40;;;;;;;30.60;30.87;99928.41;10338303;28;20178;-80
2022/08/01 10:08:03;;;;;;;5.63;2.40;;;;;;;29.69;32.23;99931.69;10332243;28;20447;-80
2022/08/01 10:13:09;;;;;;;4.03;2.20;;;;;;;29.40;32.31;99933.03;10340143;28;20050;-79
2022/08/01 10:18:11;;;;;;;3.38;2.00;;;;;;;29.69;31.78;99931.69;10336107;28;20174;-80
2022/08/01 10:23:34;;;;;;;2.50;1.88;;;;;;;30.57;29.56;99918.06;10335962;28;20571;-80
2022/08/01 10:28:44;;;;;;;3.65;1.98;;;;;;;30.84;29.63;99921.34;10336299;28;20133;-80
2022/08/01 10:33:46;;;;;;;2.67;2.03;;;;;;;30.75;29.92;99911.03;10348130;28;20116;-80
2022/08/01 10:38:57;;;;;;;4.50;2.38;;;;;;;30.77;30.14;99908.94;10337862;28;20058;-80
2022/08/01 10:44:02;;;;;;;4.40;2.05;;;;;;;30.99;29.18;99902.91;10337198;28;20054;-80
2022/08/01 10:49:12;;;;;;;3.50;2.00;;;;;;;31.24;27.91;99894.75;10353571;28;20473;-80
2022/08/01 10:54:15;;;;;;;3.55;2.15;;;;;;;31.19;28.63;99892.72;10350392;28;20056;-80
2022/08/01 10:59:29;;;;;;;5.25;2.30;;;;;;;31.17;29.06;99875.91;10337864;28;20567;-80
2022/08/01 11:05:09;;;;;;;4.72;2.40;;;;;;;30.45;30.34;99886.59;10333035;28;20197;-80
2022/08/01 11:10:24;;;;;;;3.20;2.08;;;;;;;30.17;30.55;99878.91;10332856;28;20485;-80
2022/08/01 11:15:29;;;;;;;3.75;2.22;;;;;;;30.38;30.68;99885.81;10330605;28;20054;-80
2022/08/01 11:20:35;;;;;;;3.85;2.30;;;;;;;30.37;29.92;99881.47;10329147;28;20046;-80
2022/08/01 11:25:45;;;;;;;4.78;3.10;;;;;;;30.57;30.02;99887.53;10332716;28;20453;-80
2022/08/01 11:31:07;;;;;;;4.78;2.50;;;;;;;30.63;28.94;99892.06;10348709;28;20050;-80
2022/08/01 11:36:17;;;;;;;4.90;2.20;;;;;;;30.95;28.79;99880.09;10344163;28;20394;-80
2022/08/01 11:41:32;;;;;;;4.32;2.13;;;;;;;30.67;29.81;99885.16;10331729;28;20093;-80
2022/08/01 11:47:07;;;;;;;3.85;2.10;;;;;;;30.82;29.56;99882.94;10329000;28;20108;-80
2022/08/01 11:52:32;;;;;;;4.10;2.40;;;;;;;30.96;28.93;99867.41;10347773;28;20152;-79
2022/08/01 11:57:36;;;;;;;5.40;2.42;;;;;;;30.77;29.77;99877.38;10335118;28;20064;-80
2022/08/01 12:02:39;;;;;;;5.13;2.10;;;;;;;30.42;29.36;99871.66;10330101;28;20081;-79
2022/08/01 12:07:46;;;;;;;2.90;1.98;;;;;;;30.49;29.33;99874.34;10332670;28;20045;-80
2022/08/01 12:12:51;;;;;;;4.90;1.90;;;;;;;30.40;29.47;99876.44;10330194;28;20075;-79
2022/08/01 12:18:01;;;;;;;2.60;1.80;;;;;;;30.29;29.62;99869.09;10334739;28;20058;-80
2022/08/01 12:23:08;;;;;;;3.13;2.20;;;;;;;30.40;30.24;99871.06;10332231;28;20096;-79
2022/08/01 12:28:15;;;;;;;4.22;2.40;;;;;;;30.15;30.44;99883.69;10330017;28;20054;-80
2022/08/01 12:33:20;;;;;;;4.82;2.53;;;;;;;30.09;30.65;99870.28;10333732;28;20054;-80
2022/08/01 12:38:27;;;;;;;3.97;2.60;;;;;;;29.63;31.35;99886.72;10332808;28;20053;-79
2022/08/01 12:43:34;;;;;;;4.00;2.50;;;;;;;29.78;30.38;99890.78;10333744;28;20046;-79
2022/08/01 12:48:36;;;;;;;3.47;2.38;;;;;;;29.82;30.42;99889.31;10330410;28;20049;-79
2022/08/01 12:53:38;;;;;;;5.22;2.47;;;;;;;29.44;30.79;99901.94;10328376;28;20105;-79
2022/08/01 12:58:44;;;;;;;4.20;2.40;;;;;;;29.67;30.74;99898.72;10329829;28;20042;-79
2022/08/01 13:04:00;;;;;;;4.25;2.40;;;;;;;29.60;30.50;99896.06;10323737;28;20061;-79
2022/08/01 13:09:06;;;;;;;5.38;2.10;;;;;;;29.66;30.97;99894.38;10330253;28;20107;-80
2022/08/01 13:14:08;;;;;;;5.03;2.35;;;;;;;29.92;30.08;99890.69;10327834;28;20488;-79
2022/08/01 13:19:13;;;;;;;2.75;2.13;;;;;;;30.08;29.98;99896.44;10327851;28;20046;-80
2022/08/01 13:24:26;;;;;;;5.07;2.15;;;;;;;30.00;30.33;99893.16;10337686;28;20129;-79
2022/08/01 13:29:41;;;;;;;6.03;2.22;;;;;;;30.01;30.30;99892.94;10346035;28;20470;-80
2022/08/01 13:34:43;;;;;;;6.22;2.20;;;;;;;29.84;29.83;99889.09;10338320;28;20046;-79
2022/08/01 13:39:47;;;;;;;3.45;2.28;;;;;;;29.96;30.12;99886.56;10328463;28;20050;-80
2022/08/01 13:44:50;;;;;;;4.53;2.50;;;;;;;29.96;30.22;99887.38;10324363;28;20089;-80
2022/08/01 13:49:53;;;;;;;3.45;2.30;;;;;;;29.98;29.99;99888.00;10330001;28;20058;-80
2022/08/01 13:54:56;;;;;;;4.03;2.47;;;;;;;30.08;29.95;99882.09;10332620;28;20105;-80
2022/08/01 14:00:01;;;;;;;3.20;2.30;;;;;;;30.42;29.08;99882.44;10339641;28;20143;-79
2022/08/01 14:05:03;;;;;;;3.85;1.98;;;;;;;30.55;28.91;99879.66;10325081;28;20090;-79
2022/08/01 14:10:06;;;;;;;4.50;2.17;;;;;;;30.62;28.66;99882.28;10331336;28;20058;-79
2022/08/01 14:15:20;;;;;;;3.10;2.25;;;;;;;30.70;28.13;99873.09;10329290;28;20054;-79
2022/08/01 14:20:39;;;;;;;3.47;2.58;;;;;;;30.52;28.75;99868.47;10342924;28;20089;-79
2022/08/01 14:25:44;;;;;;;3.70;2.38;;;;;;;30.18;29.35;99877.88;10334209;28;20050;-79
2022/08/01 14:31:12;;;;;;;3.90;2.40;;;;;;;29.82;30.35;99893.88;10334027;28;20060;-79
2022/08/01 14:36:14;;;;;;;5.43;2.70;;;;;;;29.92;30.02;99885.31;10333110;28;20131;-79
2022/08/01 14:41:31;;;;;;;6.32;2.47;;;;;;;29.79;30.66;99889.75;10325418;28;20042;-79
2022/08/01 14:46:33;;;;;;;7.28;2.47;;;;;;;29.84;30.65;99889.09;10334564;28;20058;-79
2022/08/01 14:51:39;;;;;;;4.88;2.30;;;;;;;29.50;31.33;99893.00;10334460;28;20132;-79
2022/08/01 14:56:46;;;;;;;7.55;2.50;;;;;;;29.13;31.83;99895.63;10334813;28;20100;-79
2022/08/01 15:01:49;;;;;;;3.78;2.45;;;;;;;29.05;32.16;99888.59;10332780;28;20050;-78
2022/08/01 15:06:51;;;;;;;5.25;2.42;;;;;;;28.97;32.13;99889.63;10333184;28;20050;-79
2022/08/01 15:11:53;;;;;;;4.07;2.47;;;;;;;29.00;31.61;99896.47;10331285;28;20055;-79
2022/08/01 15:16:56;;;;;;;3.63;2.50;;;;;;;28.99;31.59;99892.94;10330923;28;20050;-79
2022/08/01 15:21:59;;;;;;;4.50;2.30;;;;;;;29.01;31.83;99896.25;10330768;28;20473;-79
2022/08/01 15:27:06;;;;;;;5.30;2.50;;;;;;;28.87;32.12;99901.88;10330089;28;20073;-79
2022/08/01 15:32:09;;;;;;;5.75;2.40;;;;;;;29.06;32.48;99901.00;10348778;28;20503;-79
2022/08/01 15:37:13;;;;;;;3.78;2.60;;;;;;;29.27;32.14;99905.31;10331439;28;20050;-79
2022/08/01 15:42:17;;;;;;;4.82;2.58;;;;;;;29.10;32.02;99907.63;10332440;28;20104;-79
2022/08/01 15:47:26;;;;;;;6.57;2.50;;;;;;;28.97;31.57;99907.69;10346906;28;20463;-79
2022/08/01 15:52:28;;;;;;;4.40;2.47;;;;;;;28.87;31.79;99905.41;10347095;28;20771;-79
2022/08/01 15:57:35;;;;;;;4.40;2.30;;;;;;;28.61;32.27;99908.09;10332207;28;20062;-80
2022/08/01 16:02:39;;;;;;;5.50;2.60;;;;;;;28.32;32.34;99911.22;10330184;28;20093;-80
2022/08/01 16:07:41;;;;;;;5.18;2.38;;;;;;;28.35;32.05;99907.28;10344801;28;20140;-79
2022/08/01 16:13:08;;;;;;;7.10;2.50;;;;;;;28.22;32.64;99913.44;10341279;28;20366;-80
2022/08/01 16:18:12;;;;;;;7.97;2.50;;;;;;;28.17;32.70;99907.88;10330443;28;20088;-79
2022/08/01 16:23:16;;;;;;;4.68;2.40;;;;;;;28.24;32.71;99919.44;10328366;28;20902;-80
2022/08/01 16:28:19;;;;;;;7.30;2.40;;;;;;;28.06;32.54;99921.91;10329284;28;20109;-79
2022/08/01 16:33:26;;;;;;;3.83;2.30;;;;;;;28.02;32.28;99926.03;10346265;28;20459;-79
2022/08/01 16:38:48;;;;;;;5.63;2.60;;;;;;;27.87;32.94;99922.72;10330619;28;20049;-80
2022/08/01 16:43:51;;;;;;;3.92;2.45;;;;;;;27.63;33.37;99915.97;10333656;28;20050;-80
2022/08/01 16:48:55;;;;;;;3.83;2.33;;;;;;;27.49;34.05;99914.28;10341743;28;20172;-80
2022/08/01 16:53:56;;;;;;;6.80;2.63;;;;;;;27.34;34.68;99921.69;10330677;28;20046;-80
2022/08/01 16:58:58;;;;;;;7.35;2.40;;;;;;;27.27;35.10;99921.63;10344052;28;20104;-80
2022/08/01 17:04:01;;;;;;;5.75;2.88;;;;;;;27.28;35.28;99917.09;10331822;28;20054;-80
2022/08/01 17:09:03;;;;;;;4.22;2.35;;;;;;;27.34;35.36;99919.78;10342953;28;20061;-79
2022/08/01 17:14:05;;;;;;;4.80;2.38;;;;;;;27.61;35.12;99907.28;10329211;28;20511;-79
2022/08/01 17:19:07;;;;;;;4.13;2.40;;;;;;;27.67;34.79;99921.81;10329171;28;20058;-80
2022/08/01 17:24:09;;;;;;;5.43;2.70;;;;;;;27.68;34.57;99915.38;10329738;28;20051;-80
2022/08/01 17:29:16;;;;;;;3.40;2.33;;;;;;;27.90;33.38;99920.44;10326911;28;20062;-79
2022/08/01 17:34:18;;;;;;;4.20;2.35;;;;;;;27.80;33.33;99917.31;10332071;28;20042;-79
2022/08/01 17:39:19;;;;;;;4.10;2.30;;;;;;;27.67;33.68;99927.19;10323002;28;20509;-79
2022/08/01 17:44:39;;;;;;;5.35;2.35;;;;;;;27.38;33.86;99913.00;10328899;28;20456;-79
2022/08/01 17:49:42;;;;;;;4.57;2.42;;;;;;;27.21;34.37;99918.91;10328675;28;20050;-79
2022/08/01 17:54:55;;;;;;;3.47;2.22;;;;;;;27.01;34.86;99928.69;10331431;28;20042;-80
2022/08/01 17:59:57;;;;;;;5.55;2.45;;;;;;;26.79;35.25;99933.31;10332769;28;20058;-79
2022/08/01 18:04:59;;;;;;;3.08;2.20;;;;;;;26.63;35.62;99938.94;10339575;28;20108;-80
2022/08/01 18:10:01;;;;;;;3.58;2.60;;;;;;;26.49;36.19;99947.88;10338005;28;20050;-79
2022/08/01 18:15:04;;;;;;;5.03;2.30;;;;;;;26.26;36.58;99948.06;10336398;28;20535;-79
2022/08/01 18:20:07;;;;;;;3.67;2.45;;;;;;;26.15;36.67;99958.47;10353325;28;20057;-79
2022/08/01 18:25:09;;;;;;;3.95;2.35;;;;;;;26.03;36.81;99957.31;10337734;28;20136;-80
2022/08/01 18:30:11;;;;;;;5.18;2.47;;;;;;;25.85;37.32;99955.03;10340612;28;20123;-79
2022/08/01 18:35:13;;;;;;;4.38;2.67;;;;;;;25.73;37.55;99960.03;10337661;28;20085;-81
2022/08/01 18:40:15;;;;;;;6.70;2.50;;;;;;;25.65;37.78;99970.06;10336552;28;20058;-80
2022/08/01 18:45:23;;;;;;;5.38;3.00;;;;;;;25.52;38.02;99967.22;10337377;28;20050;-81
2022/08/01 18:50:25;;;;;;;5.75;3.00;;;;;;;25.36;38.51;99967.41;10350492;28;20097;-80
2022/08/01 18:55:27;;;;;;;6.45;2.80;;;;;;;25.13;38.84;99970.13;10333017;28;20645;-80
2022/08/01 19:00:29;;;;;;;4.78;2.50;;;;;;;24.96;39.18;99974.00;10353267;28;20108;-81
2022/08/01 19:05:31;;;;;;;6.22;2.92;;;;;;;24.78;39.62;99970.81;10330738;28;20053;-83
2022/08/01 19:10:39;;;;;;;10.77;3.60;;;;;;;24.54;40.02;99977.22;10351216;28;20081;-82
2022/08/01 19:15:40;;;;;;;5.60;2.90;;;;;;;24.32;40.50;99990.56;10336045;28;20663;-83
2022/08/01 19:20:44;;;;;;;11.10;2.90;;;;;;;24.14;40.90;99997.03;10338739;28;20085;-82
2022/08/01 19:25:46;;;;;;;10.35;2.80;;;;;;;23.73;41.87;100008.09;10335686;28;20085;-82
2022/08/01 19:30:59;;;;;;;10.88;3.00;;;;;;;23.54;42.82;100033.38;10352230;28;20106;-82
2022/08/01 19:36:01;;;;;;;6.03;2.80;;;;;;;23.48;42.78;100034.91;10333521;28;20096;-82
2022/08/01 19:41:03;;;;;;;5.05;2.55;;;;;;;23.34;43.09;100034.72;10341204;28;20109;-82
2022/08/01 19:46:05;;;;;;;5.90;2.67;;;;;;;23.25;43.45;100043.75;10334945;28;20085;-82
2022/08/01 19:51:20;;;;;;;7.60;3.10;;;;;;;23.11;43.90;100052.44;10336179;28;20053;-82
2022/08/01 19:56:25;;;;;;;4.95;2.65;;;;;;;22.97;44.02;100050.47;10334647;28;20058;-82
2022/08/01 20:01:27;;;;;;;11.02;2.78;;;;;;;22.79;44.24;100058.63;10331214;28;20077;-82
2022/08/01 20:06:29;;;;;;;5.20;2.85;;;;;;;22.64;44.60;100058.44;10333663;28;20057;-81
2022/08/01 20:11:31;;;;;;;22.80;3.85;;;;;;;22.48;45.16;100061.09;10335619;28;20678;-82
2022/08/01 20:16:34;;;;;;;15.65;2.90;;;;;;;22.43;45.36;100063.41;10348123;28;20046;-82
2022/08/01 20:21:37;;;;;;;4.88;2.75;;;;;;;22.20;45.59;100065.03;10349025;28;20046;-82
2022/08/01 20:26:39;;;;;;;8.27;3.35;;;;;;;22.01;46.02;100067.91;10333809;28;20054;-83
2022/08/01 20:38:03;;;;;;;;;;;;;;;21.39;47.43;100071.81;10333612;28;20042;-82
2022/08/01 20:43:08;;;;;;;4.15;2.97;;;;;;;21.71;46.91;100077.28;10344131;28;20878;-82
2022/08/01 20:48:11;;;;;;;4.53;2.70;;;;;;;21.69;47.02;100097.06;10329772;28;20084;-82
2022/08/01 20:53:13;;;;;;;4.75;2.60;;;;;;;21.58;47.47;100086.69;10330964;28;20109;-82
2022/08/01 20:58:33;;;;;;;5.50;2.88;;;;;;;21.49;47.97;100093.81;10330296;28;20054;-83
2022/08/01 21:03:44;;;;;;;4.70;3.00;;;;;;;21.18;48.30;100092.56;10348848;28;20054;-82
2022/08/01 21:08:48;;;;;;;6.30;3.10;;;;;;;21.07;48.02;100093.66;10348284;28;20152;-81
2022/08/01 21:13:50;;;;;;;8.27;2.65;;;;;;;20.89;48.42;100092.84;10346582;28;20586;-82
2022/08/01 21:19:12;;;;;;;3.35;2.63;;;;;;;20.91;48.50;100096.19;10332766;28;20050;-82
2022/08/01 21:24:27;;;;;;;8.00;2.75;;;;;;;20.97;48.09;100108.00;10331706;28;20051;-81
2022/08/01 21:29:32;;;;;;;3.80;2.60;;;;;;;20.97;48.43;100116.00;10323149;28;20062;-82
2022/08/01 21:34:37;;;;;;;14.13;7.72;;;;;;;20.92;48.98;100111.16;10336771;28;20045;-82
2022/08/01 21:39:43;;;;;;;6.47;3.90;;;;;;;20.76;49.43;100115.50;10336665;28;20499;-82
2022/08/01 21:44:46;;;;;;;5.10;2.97;;;;;;;20.69;49.80;100125.88;10355067;28;20108;-82
2022/08/01 21:49:47;;;;;;;5.72;3.22;;;;;;;20.72;49.47;100114.94;10340046;28;20875;-82
2022/08/01 21:55:31;;;;;;;7.63;3.47;;;;;;;20.48;50.02;100122.63;10356923;28;20111;-82
2022/08/01 22:00:39;;;;;;;8.13;3.20;;;;;;;20.46;50.29;100123.78;10340080;28;20053;-82
2022/08/01 22:05:42;;;;;;;8.50;2.90;;;;;;;20.31;50.26;100126.13;10337795;28;20443;-82
2022/08/01 22:10:57;;;;;;;4.30;2.85;;;;;;;20.33;50.43;100123.31;10353478;28;20053;-82
2022/08/01 22:16:01;;;;;;;6.05;2.72;;;;;;;20.30;50.16;100124.44;10337017;28;20104;-82
2022/08/01 22:21:03;;;;;;;5.80;2.88;;;;;;;20.01;51.09;100129.06;10356487;28;20089;-82
2022/08/01 22:26:07;;;;;;;4.50;2.95;;;;;;;19.83;51.07;100136.94;10338385;28;20051;-82
2022/08/01 22:31:08;;;;;;;6.05;2.70;;;;;;;19.85;51.30;100144.75;10338708;28;20085;-82
2022/08/01 22:36:12;;;;;;;5.82;3.20;;;;;;;19.80;51.68;100136.38;10337334;28;20096;-82
2022/08/01 22:41:40;;;;;;;5.32;3.22;;;;;;;19.44;52.31;100136.19;10349704;28;20495;-82
2022/08/01 22:47:10;;;;;;;5.55;3.60;;;;;;;19.24;53.04;100134.56;10336230;28;20144;-82
2022/08/01 22:52:17;;;;;;;4.75;3.15;;;;;;;19.18;53.00;100139.59;10352604;28;20573;-82
2022/08/01 22:57:28;;;;;;;6.80;3.20;;;;;;;19.33;53.24;100135.53;10337348;28;20077;-82
2022/08/01 23:02:38;;;;;;;7.30;3.30;;;;;;;19.15;53.63;100146.03;10334777;28;20053;-82
2022/08/01 23:07:48;;;;;;;5.53;3.22;;;;;;;19.25;53.26;100157.47;10351804;28;20112;-82
2022/08/01 23:12:51;;;;;;;4.43;2.90;;;;;;;19.36;52.98;100153.78;10336181;28;20054;-82
2022/08/01 23:17:53;;;;;;;4.32;3.30;;;;;;;19.38;53.00;100155.34;10337241;28;20181;-82
2022/08/01 23:22:56;;;;;;;5.57;3.40;;;;;;;19.36;53.21;100164.41;10353326;28;20097;-82
2022/08/01 23:27:58;;;;;;;6.85;3.15;;;;;;;19.32;52.90;100166.50;10336439;28;20116;-82
2022/08/01 23:33:06;;;;;;;5.38;3.70;;;;;;;19.24;53.22;100170.84;10335082;28;20047;-83
2022/08/01 23:38:11;;;;;;;4.60;3.13;;;;;;;19.14;53.20;100159.41;10336810;28;20065;-83
2022/08/01 23:43:13;;;;;;;6.25;2.97;;;;;;;19.09;53.07;100159.00;10354642;28;20053;-82
2022/08/01 23:48:18;;;;;;;8.23;3.80;;;;;;;19.00;53.42;100152.69;10337858;28;20078;-82
2022/08/01 23:53:53;;;;;;;6.10;4.13;;;;;;;18.76;54.03;100152.28;10333164;28;20050;-82